CW5557 Weather Reports


Display with metric or nautical units.
time (UTC)temp
F
wind
direction
speed
MPH
gust
MPH
rain 1hr
in
rain 24hr
in
rain mn
in
humidity
%
barometer
mb
20170924173709 73 170 4.0 10.0 0.00 0.15 0.02 81 1018.1
20170924171707 71 216 3.0 9.0 0.00 0.15 0.02 86 1018.1
20170924170707 72 176 2.0 7.0 0.00 0.15 0.02 85 1018.6
20170924164708 73 323 2.0 7.0 0.00 0.15 0.02 85 1018.6
20170924163710 72 214 1.0 13.0 0.00 0.15 0.02 86 1018.5
20170924154710 68 186 1.0 7.0 0.00 0.15 0.02 90 1020.1
20170924153708 69 192 2.0 5.0 0.00 0.15 0.02 90 1020.1
20170924151706 68 146 2.0 12.0 0.00 0.15 0.02 90 1020.1
20170924150707 69 153 1.0 13.0 0.00 0.15 0.02 90 1020.1
20170924144707 69 184 1.0 10.0 0.00 0.15 0.02 91 1020.2
20170924143706 69 171 0.0 9.0 0.00 0.15 0.02 92 1020.3
20170924141707 68 229 1.0 6.0 0.00 0.15 0.02 91 1020.0
20170924140709 68 206 2.0 7.0 0.00 0.15 0.02 91 1020.0
20170924134706 68 215 2.0 5.0 0.00 0.15 0.02 92 1020.0
20170924133706 67 202 3.0 5.0 0.00 0.15 0.02 92 1020.0
20170924131708 67 242 0.0 3.0 0.00 0.15 0.02 92 1019.3
20170924130707 67 212 1.0 3.0 0.00 0.15 0.02 92 1019.3
20170924124707 67 226 0.0 3.0 0.00 0.15 0.02 92 1019.3
20170924123708 68 210 1.0 7.0 0.00 0.15 0.02 92 1019.3
20170924121707 67 199 1.0 6.0 0.00 0.15 0.02 93 1018.9
20170924120706 66 173 1.0 3.0 0.00 0.15 0.02 93 1018.7
20170924114707 65 149 2.0 9.0 0.00 0.15 0.02 93 1018.3
20170924113707 65 109 3.0 9.0 0.00 0.15 0.02 93 1018.3
20170924111706 64 89 5.0 8.0 0.00 0.15 0.02 93 1018.0
20170924110707 64 82 2.0 7.0 0.00 0.15 0.02 93 1018.0
20170924104711 64 70 3.0 7.0 0.00 0.15 0.02 93 1017.7
20170924103707 64 65 5.0 7.0 0.00 0.15 0.02 93 1017.7
20170924101707 63 76 1.0 3.0 0.00 0.15 0.02 93 1017.3
20170924100708 63 75 3.0 6.0 0.00 0.15 0.02 93 1017.3
20170924094707 63 65 1.0 3.0 0.00 0.15 0.02 93 1017.0
20170924093708 64 65 2.0 3.0 0.00 0.15 0.02 93 1017.0
20170924091706 64 65 2.0 3.0 0.00 0.15 0.02 93 1016.9
20170924090707 64 65 1.0 5.0 0.00 0.15 0.02 93 1016.8
20170924081708 65 175 0.0 1.0 0.01 0.15 0.02 93 1016.1
20170924080706 65 175 0.0 1.0 0.02 0.15 0.02 93 1016.1
20170924074706 65 175 0.0 2.0 0.02 0.15 0.02 93 1016.1
20170924073707 65 175 0.0 3.0 0.02 0.15 0.02 93 1016.1
20170924071707 65 170 0.0 3.0 0.02 0.14 0.02 93 1016.9
20170924070706 65 170 0.0 1.0 0.00 0.13 0.00 93 1017.6
20170924064715 65 170 0.0 3.0 0.00 0.13 0.00 93 1017.6
20170924063708 65 170 1.0 3.0 0.00 0.13 0.00 93 1017.5
20170924061708 65 153 1.0 3.0 0.00 0.13 0.00 93 1017.8
20170924060708 65 165 2.0 6.0 0.00 0.13 0.00 93 1018.0
20170924044709 65 136 1.0 3.0 0.00 0.13 0.00 93 1018.6
20170924043707 65 136 0.0 3.0 0.00 0.13 0.00 93 1018.6
20170924041707 65 136 1.0 2.0 0.00 0.13 0.00 93 1018.7
20170924040708 65 136 1.0 2.0 0.00 0.13 0.00 93 1018.7
20170924034711 65 136 0.0 0.0 0.00 0.13 0.13 93 1018.7
20170924033708 65 136 0.0 1.0 0.00 0.13 0.13 93 1019.3
20170924031707 65 136 0.0 1.0 0.00 0.13 0.13 93 1019.3
20170924030707 65 136 1.0 3.0 0.00 0.13 0.13 93 1019.3
20170924024708 65 136 0.0 1.0 0.00 0.13 0.13 93 1019.3
20170924023708 66 136 1.0 2.0 0.00 0.13 0.13 93 1019.2
20170924021708 66 136 0.0 1.0 0.00 0.13 0.13 93 1019.2
20170924020708 66 136 0.0 2.0 0.00 0.13 0.13 93 1017.8
20170924014710 65 136 1.0 6.0 0.00 0.13 0.13 93 1017.8
20170924013708 65 139 1.0 3.0 0.00 0.13 0.13 93 1017.8
20170924011708 65 140 2.0 5.0 0.00 0.13 0.13 93 1017.8
20170924010709 65 132 1.0 5.0 0.00 0.13 0.13 93 1017.8
20170924004708 66 97 1.0 3.0 0.00 0.13 0.13 93 1017.8
20170924003712 66 108 1.0 3.0 0.00 0.13 0.13 93 1017.8
20170923231710 66 169 0.0 1.0 0.00 0.13 0.13 92 1016.6
20170923230708 67 169 0.0 1.0 0.00 0.13 0.13 92 1015.4
20170923224708 67 197 0.0 0.0 0.00 0.13 0.13 92 1015.4
20170923223707 67 197 0.0 0.0 0.00 0.13 0.13 92 1015.4
20170923221728 67 197 0.0 1.0 0.00 0.13 0.13 92 1015.4
20170923220707 67 197 0.0 2.0 0.00 0.13 0.13 92 1015.4
20170923214707 67 197 2.0 3.0 0.00 0.13 0.13 92 1015.4
20170923213707 67 197 0.0 3.0 0.00 0.13 0.13 92 1015.4
20170923211708 67 197 1.0 3.0 0.03 0.13 0.13 92 1015.4
20170923210707 67 183 1.0 3.0 0.11 0.13 0.13 92 1015.7
20170923204709 66 150 0.0 5.0 0.13 0.13 0.13 91 1015.7
20170923203707 67 345 0.0 7.0 0.13 0.13 0.13 91 1015.7
20170923201710 69 156 5.0 12.0 0.09 0.09 0.09 88 1015.9
20170923200712 72 144 3.0 12.0 0.05 0.05 0.05 86 1015.5
20170923194707 73 217 2.0 6.0 0.00 0.00 0.00 83 1015.5
20170923193709 73 210 1.0 6.0 0.00 0.00 0.00 83 1015.5
20170923191709 73 228 2.0 6.0 0.00 0.00 0.00 83 1015.9
20170923190708 72 231 2.0 9.0 0.00 0.00 0.00 86 1015.9
20170923184709 72 219 3.0 6.0 0.00 0.00 0.00 87 1015.9
20170923183708 71 184 1.0 6.0 0.00 0.00 0.00 89 1016.0
20170923181707 72 234 3.0 12.0 0.00 0.00 0.00 86 1016.5
20170923180708 72 190 5.0 12.0 0.00 0.00 0.00 87 1016.5
20170923174708 72 184 2.0 7.0 0.00 0.00 0.00 86 1016.5